Time;durP1;ratioP1;P1;durP2;ratioP2;P2;SDS_P1;SDS_P2;PMS_P1;PMS_P2;Temp;Humidity;BMP_temperature;BMP_pressure;BME280_temperature;BME280_humidity;BME280_pressure;Samples;Min_cycle;Max_cycle;Signal;HPM_P1;HPM_P2
2022/05/15 00:00:37;;;;;;;3.97;2.17;;;;;;;9.36;95.31;98647.44;5063743;28;20044;-67
2022/05/15 00:03:04;;;;;;;5.68;2.55;;;;;;;9.14;94.93;98656.47;5063624;28;20024;-67
2022/05/15 00:05:29;;;;;;;6.13;2.90;;;;;;;9.21;96.43;98659.91;5063771;28;20308;-67
2022/05/15 00:07:56;;;;;;;5.95;2.53;;;;;;;9.11;95.92;98655.69;5063652;28;20200;-67
2022/05/15 00:10:22;;;;;;;7.78;2.95;;;;;;;9.08;96.46;98647.84;5063744;28;20031;-67
2022/05/15 00:12:47;;;;;;;3.53;2.40;;;;;;;9.16;96.89;98648.59;5063700;28;20217;-67
2022/05/15 00:15:13;;;;;;;5.05;2.55;;;;;;;9.00;96.71;98645.31;5063777;28;20220;-67
2022/05/15 00:17:38;;;;;;;7.10;2.58;;;;;;;8.97;97.53;98645.34;5071396;28;20371;-67
2022/05/15 00:20:04;;;;;;;3.33;2.20;;;;;;;8.97;97.50;98642.72;5083634;28;20027;-67
2022/05/15 00:22:34;;;;;;;5.82;2.15;;;;;;;8.95;97.40;98638.38;5083650;28;20089;-67
2022/05/15 00:25:02;;;;;;;6.50;2.95;;;;;;;8.99;95.81;98640.06;5083636;28;20028;-67
2022/05/15 00:27:27;;;;;;;4.35;2.47;;;;;;;9.04;96.29;98640.88;5083605;28;20025;-67
2022/05/15 00:29:52;;;;;;;4.32;2.60;;;;;;;9.02;96.13;98640.03;5083500;28;20092;-67
2022/05/15 00:32:18;;;;;;;5.80;2.38;;;;;;;8.88;96.14;98631.47;5072913;28;20025;-67
2022/05/15 00:34:43;;;;;;;3.65;2.50;;;;;;;8.75;96.12;98639.50;5047436;28;20029;-67
2022/05/15 00:37:08;;;;;;;7.78;3.25;;;;;;;8.64;99.26;98638.75;5047323;28;20025;-67
2022/05/15 00:39:33;;;;;;;4.38;2.88;;;;;;;8.43;96.11;98625.91;5047280;28;20368;-67
2022/05/15 00:41:59;;;;;;;4.40;2.58;;;;;;;8.41;97.72;98630.28;5047227;28;20026;-67
2022/05/15 00:44:24;;;;;;;5.60;2.67;;;;;;;8.47;98.33;98624.97;5059114;28;20194;-67
2022/05/15 00:46:49;;;;;;;5.05;2.70;;;;;;;8.56;97.94;98632.75;5067181;28;20035;-67
2022/05/15 00:49:15;;;;;;;8.20;3.22;;;;;;;8.60;97.12;98630.94;5066907;28;20336;-67
2022/05/15 00:51:53;;;;;;;6.50;3.10;;;;;;;8.56;97.57;98626.59;5067035;28;20067;-67
2022/05/15 00:54:24;;;;;;;3.38;2.53;;;;;;;8.49;95.47;98627.56;5066748;28;20032;-67
2022/05/15 00:57:00;;;;;;;4.80;2.35;;;;;;;8.43;96.28;98623.28;5066909;28;20024;-67
2022/05/15 00:59:28;;;;;;;6.50;3.15;;;;;;;8.56;96.17;98624.88;5066974;28;20059;-67
2022/05/15 01:01:54;;;;;;;3.50;2.38;;;;;;;8.40;95.81;98625.94;5067210;28;20020;-67
2022/05/15 01:04:19;;;;;;;5.32;3.22;;;;;;;8.43;97.24;98628.50;5066786;28;20062;-67
2022/05/15 01:06:44;;;;;;;5.43;3.20;;;;;;;8.52;97.21;98627.53;5062677;28;20104;-67
2022/05/15 01:09:12;;;;;;;4.93;2.83;;;;;;;8.54;96.85;98626.63;5046668;28;20089;-67
2022/05/15 01:11:39;;;;;;;5.03;3.00;;;;;;;8.46;97.00;98638.09;5046683;28;20025;-67
2022/05/15 01:14:10;;;;;;;4.65;2.70;;;;;;;8.50;96.35;98630.19;5046577;28;20048;-67
2022/05/15 01:16:37;;;;;;;5.65;2.90;;;;;;;8.44;94.57;98630.25;5046624;28;20036;-67
2022/05/15 01:19:04;;;;;;;4.22;2.50;;;;;;;8.28;95.57;98628.69;5046808;28;20021;-67
2022/05/15 01:21:34;;;;;;;7.35;3.05;;;;;;;8.23;96.45;98630.47;5067592;28;20030;-67
2022/05/15 01:24:01;;;;;;;4.32;2.95;;;;;;;8.31;96.40;98628.63;5086764;28;20027;-67
2022/05/15 01:26:27;;;;;;;3.45;2.30;;;;;;;8.06;95.57;98632.34;5086622;28;20220;-67
2022/05/15 01:28:53;;;;;;;4.40;2.80;;;;;;;7.99;96.88;98628.06;5086266;28;20025;-67
2022/05/15 01:31:19;;;;;;;4.03;2.72;;;;;;;8.18;96.27;98642.72;5086392;28;20308;-67
2022/05/15 01:33:49;;;;;;;4.63;2.63;;;;;;;8.11;95.17;98630.56;5078390;28;20042;-67
2022/05/15 01:36:16;;;;;;;5.32;2.83;;;;;;;8.18;95.39;98632.25;5066487;28;20301;-67
2022/05/15 01:38:41;;;;;;;3.45;2.45;;;;;;;7.88;94.95;98632.50;5066188;28;20317;-67
2022/05/15 01:41:07;;;;;;;3.78;2.72;;;;;;;7.87;96.79;98630.78;5065220;28;20029;-67
2022/05/15 01:43:33;;;;;;;3.78;2.58;;;;;;;7.97;96.25;98632.44;5066320;28;20024;-67
2022/05/15 01:45:59;;;;;;;4.18;2.72;;;;;;;7.80;96.45;98623.88;5066015;28;20048;-67
2022/05/15 01:48:26;;;;;;;5.05;3.10;;;;;;;7.82;97.44;98627.31;5065810;28;20037;-67
2022/05/15 01:50:51;;;;;;;4.25;2.92;;;;;;;7.91;96.82;98632.50;5065997;28;20094;-67
2022/05/15 01:53:17;;;;;;;3.72;2.58;;;;;;;7.96;96.65;98641.19;5065939;28;20244;-67
2022/05/15 01:55:42;;;;;;;5.43;2.80;;;;;;;7.99;96.53;98641.16;5065787;28;20025;-67
2022/05/15 01:58:10;;;;;;;6.55;3.20;;;;;;;7.98;97.22;98636.78;5057321;28;20233;-67
2022/05/15 02:00:35;;;;;;;6.43;2.92;;;;;;;7.81;97.08;98636.06;5046057;28;20022;-67
2022/05/15 02:03:00;;;;;;;5.10;2.80;;;;;;;7.97;97.60;98637.69;5045673;28;20032;-67
2022/05/15 02:05:26;;;;;;;3.22;2.30;;;;;;;7.76;96.53;98632.63;5045731;28;20256;-67
2022/05/15 02:07:51;;;;;;;3.83;2.63;;;;;;;7.61;97.01;98622.28;5045533;28;20029;-67
2022/05/15 02:10:18;;;;;;;4.85;2.80;;;;;;;7.64;98.59;98622.25;5045713;28;20032;-67
2022/05/15 02:12:44;;;;;;;4.20;2.83;;;;;;;7.60;98.10;98624.91;5045636;28;20343;-67
2022/05/15 02:15:10;;;;;;;8.30;3.58;;;;;;;7.58;98.16;98624.91;5045491;28;20025;-67
2022/05/15 02:17:35;;;;;;;5.65;2.63;;;;;;;7.58;98.44;98617.06;5045762;28;20017;-67
2022/05/15 02:20:01;;;;;;;3.67;2.42;;;;;;;7.61;98.16;98616.16;5045389;28;20212;-67
2022/05/15 02:22:26;;;;;;;4.20;2.70;;;;;;;7.76;97.89;98621.28;5045380;28;20067;-67
2022/05/15 02:24:52;;;;;;;4.63;3.00;;;;;;;7.67;97.17;98622.22;5045582;28;20021;-67
2022/05/15 02:27:17;;;;;;;4.57;3.00;;;;;;;7.33;98.41;98610.25;5045265;28;20198;-67
2022/05/15 02:29:43;;;;;;;5.43;2.75;;;;;;;7.25;99.80;98612.09;5045166;28;20045;-67
2022/05/15 02:32:08;;;;;;;4.85;2.38;;;;;;;7.26;99.90;98619.03;5045171;28;20088;-67
2022/05/15 02:34:34;;;;;;;4.57;2.67;;;;;;;7.26;99.42;98605.06;5056804;28;20042;-67
2022/05/15 02:36:59;;;;;;;3.75;2.60;;;;;;;7.30;98.08;98607.66;5064815;28;20029;-67
2022/05/15 02:39:24;;;;;;;4.60;2.67;;;;;;;7.32;97.64;98613.78;5065246;28;20025;-67
2022/05/15 02:41:50;;;;;;;4.90;3.20;;;;;;;7.29;98.31;98608.56;5078900;28;20073;-67
2022/05/15 02:44:15;;;;;;;4.07;2.83;;;;;;;7.36;97.81;98610.25;5064923;28;20025;-67
2022/05/15 02:46:40;;;;;;;3.75;2.72;;;;;;;7.35;97.50;98607.63;5067200;28;20335;-67
2022/05/15 02:51:50;;;;;;;4.10;2.60;;;;;;;7.30;98.48;98609.41;5084735;28;20108;-67
2022/05/15 02:54:15;;;;;;;4.93;2.42;;;;;;;7.23;97.27;98607.72;5083986;28;20025;-67
2022/05/15 02:56:40;;;;;;;5.40;2.63;;;;;;;7.31;97.30;98605.94;5084690;28;20032;-67
2022/05/15 02:59:06;;;;;;;4.80;2.92;;;;;;;7.10;96.55;98608.69;5084846;28;20030;-67
2022/05/15 03:01:31;;;;;;;15.65;2.55;;;;;;;7.16;96.84;98616.50;5059786;28;20079;-67
2022/05/15 03:03:57;;;;;;;4.25;3.05;;;;;;;7.23;96.98;98612.94;5044607;28;20028;-67
2022/05/15 03:06:22;;;;;;;3.20;2.50;;;;;;;7.10;97.01;98611.28;5044649;28;20272;-67
2022/05/15 03:08:49;;;;;;;6.43;3.05;;;;;;;7.15;97.88;98613.00;5044529;28;20009;-67
2022/05/15 03:11:15;;;;;;;5.05;2.70;;;;;;;7.04;97.42;98609.59;5044754;28;20024;-67
2022/05/15 03:13:41;;;;;;;3.40;2.30;;;;;;;7.02;97.33;98606.09;5044431;28;20041;-67
2022/05/15 03:16:08;;;;;;;6.30;3.10;;;;;;;6.96;97.86;98598.28;5044369;28;20029;-67
2022/05/15 03:18:39;;;;;;;5.75;2.80;;;;;;;6.93;97.84;98608.75;5044376;28;20005;-67
2022/05/15 03:21:05;;;;;;;3.83;2.35;;;;;;;6.98;97.92;98617.47;5044596;28;20021;-67
2022/05/15 03:23:31;;;;;;;3.30;2.60;;;;;;;6.89;97.39;98601.81;5044227;28;20021;-67
2022/05/15 03:25:56;;;;;;;4.03;2.72;;;;;;;6.96;96.72;98611.34;5048859;28;20055;-67
2022/05/15 03:28:21;;;;;;;9.05;2.45;;;;;;;6.65;96.94;98602.81;5064047;28;20017;-67
2022/05/15 03:30:47;;;;;;;4.63;2.90;;;;;;;6.64;97.76;98602.81;5064398;28;20058;-67
2022/05/15 03:33:12;;;;;;;4.03;2.63;;;;;;;6.74;97.93;98601.03;5064073;28;20024;-67
2022/05/15 03:35:39;;;;;;;2.88;2.45;;;;;;;6.79;97.72;98605.34;5063980;28;20025;-67
2022/05/15 03:38:06;;;;;;;4.38;2.83;;;;;;;6.92;97.52;98601.81;5062351;28;20016;-67
2022/05/15 03:40:32;;;;;;;4.60;2.67;;;;;;;7.01;97.48;98609.59;5084119;28;20129;-67
2022/05/15 03:42:57;;;;;;;6.30;2.97;;;;;;;7.01;97.10;98606.97;5084082;28;20073;-67
2022/05/15 03:45:23;;;;;;;6.85;2.55;;;;;;;7.01;95.71;98606.97;5084048;28;20032;-67
2022/05/15 03:47:53;;;;;;;11.68;2.50;;;;;;;6.92;95.12;98601.81;5083901;28;20044;-67
2022/05/15 03:50:21;;;;;;;4.65;2.50;;;;;;;6.87;94.63;98603.59;5083998;28;20029;-67
2022/05/15 03:52:46;;;;;;;3.38;2.38;;;;;;;6.86;94.48;98601.81;5084039;28;20091;-67
2022/05/15 03:55:12;;;;;;;3.45;2.40;;;;;;;6.77;95.54;98594.03;5083945;28;20025;-67
2022/05/15 03:57:38;;;;;;;3.33;2.22;;;;;;;6.88;95.02;98589.63;5063756;28;20032;-67
2022/05/15 04:00:07;;;;;;;2.95;2.08;;;;;;;6.76;95.44;98587.06;5063790;28;20028;-67
2022/05/15 04:02:32;;;;;;;6.32;2.67;;;;;;;6.74;96.39;98601.88;5063392;28;20037;-67
2022/05/15 04:04:57;;;;;;;5.30;2.95;;;;;;;6.86;96.70;98596.59;5047329;28;20343;-67
2022/05/15 04:07:23;;;;;;;5.72;2.70;;;;;;;6.86;95.71;98595.75;5047965;28;20075;-67
2022/05/15 04:09:49;;;;;;;3.13;2.50;;;;;;;6.90;96.37;98592.22;5047870;28;20338;-67
2022/05/15 04:12:14;;;;;;;4.10;2.50;;;;;;;7.02;95.20;98595.63;5047815;28;20197;-67
2022/05/15 04:14:40;;;;;;;4.82;2.40;;;;;;;6.81;95.21;98593.16;5047769;28;20067;-67
2022/05/15 04:17:06;;;;;;;4.05;2.35;;;;;;;6.95;94.26;98593.94;5047753;28;20030;-67
2022/05/15 04:19:34;;;;;;;5.00;2.50;;;;;;;6.95;94.73;98596.56;5047791;28;20021;-67
2022/05/15 04:22:02;;;;;;;2.97;2.35;;;;;;;7.03;94.91;98588.66;5047577;28;20031;-67
2022/05/15 04:24:28;;;;;;;2.95;2.33;;;;;;;6.97;95.39;98594.81;5047660;28;20021;-67
2022/05/15 04:26:54;;;;;;;5.78;2.72;;;;;;;7.12;96.10;98594.69;5062082;28;20055;-67
2022/05/15 04:29:20;;;;;;;3.70;2.30;;;;;;;7.31;95.89;98601.53;5067448;28;20021;-67
2022/05/15 04:31:46;;;;;;;2.75;2.20;;;;;;;7.38;95.44;98592.78;5067503;28;20029;-67
2022/05/15 04:34:12;;;;;;;2.92;2.25;;;;;;;7.45;94.97;98594.47;5067334;28;20035;-67
2022/05/15 04:36:37;;;;;;;5.45;2.47;;;;;;;7.43;94.34;98601.47;5067350;28;20190;-67
2022/05/15 04:39:05;;;;;;;6.20;2.50;;;;;;;7.51;94.08;98598.78;5067337;28;20017;-67
2022/05/15 04:41:30;;;;;;;3.30;2.08;;;;;;;7.57;93.23;98604.84;5067276;28;20020;-67
2022/05/15 04:43:56;;;;;;;3.85;2.50;;;;;;;7.64;94.25;98611.78;5067472;28;20024;-67
2022/05/15 04:46:22;;;;;;;5.10;2.50;;;;;;;7.86;94.39;98610.72;5067200;28;20047;-67
2022/05/15 04:48:48;;;;;;;3.38;1.98;;;;;;;8.19;93.68;98618.25;5066930;28;20041;-67
2022/05/15 04:51:13;;;;;;;3.35;2.40;;;;;;;8.94;91.38;98620.88;5067080;28;20357;-67
2022/05/15 04:53:38;;;;;;;4.72;2.42;;;;;;;9.36;89.33;98620.31;5073587;28;20030;-67
2022/05/15 04:56:04;;;;;;;5.10;2.70;;;;;;;9.89;87.21;98622.94;5081444;28;20029;-67
2022/05/15 04:58:29;;;;;;;4.00;2.17;;;;;;;10.61;85.15;98626.91;5046990;28;20029;-67
2022/05/15 05:00:55;;;;;;;5.45;2.40;;;;;;;11.40;81.94;98632.22;5055271;28;20392;-67
2022/05/15 05:03:20;;;;;;;3.25;2.13;;;;;;;11.99;79.75;98631.69;5066538;28;20032;-67
2022/05/15 05:05:46;;;;;;;2.63;2.08;;;;;;;12.55;77.25;98638.13;5066882;28;20032;-67
2022/05/15 05:08:12;;;;;;;5.18;1.98;;;;;;;13.00;74.36;98637.75;5066701;28;20028;-67
2022/05/15 05:10:39;;;;;;;4.38;1.92;;;;;;;13.35;72.38;98635.84;5066709;28;20036;-67
2022/05/15 05:13:04;;;;;;;3.22;2.05;;;;;;;13.36;71.41;98632.28;5066677;28;20056;-67
2022/05/15 05:15:29;;;;;;;3.00;2.03;;;;;;;13.18;72.29;98631.06;5066640;28;20032;-67
2022/05/15 05:17:56;;;;;;;5.05;2.28;;;;;;;13.33;72.70;98627.09;5065852;28;20021;-67
2022/05/15 05:20:22;;;;;;;2.63;1.80;;;;;;;13.43;72.70;98633.84;5066566;28;20210;-67
2022/05/15 05:22:48;;;;;;;3.30;2.00;;;;;;;13.44;72.99;98625.00;5066758;28;20055;-67
2022/05/15 05:25:13;;;;;;;4.50;2.20;;;;;;;13.53;73.73;98627.34;5065905;28;20024;-67
2022/05/15 05:27:41;;;;;;;3.03;2.15;;;;;;;13.70;74.25;98638.28;5066390;28;20059;-67
2022/05/15 05:30:10;;;;;;;4.82;2.28;;;;;;;14.16;72.49;98633.19;5066265;28;20087;-67
2022/05/15 05:32:36;;;;;;;3.45;2.35;;;;;;;14.12;71.69;98635.09;5066292;28;20025;-67
2022/05/15 05:35:01;;;;;;;2.85;1.92;;;;;;;14.56;71.22;98630.97;5066249;28;20025;-67
2022/05/15 05:37:27;;;;;;;6.35;2.33;;;;;;;14.98;70.92;98632.94;5059103;28;20333;-67
2022/05/15 05:39:52;;;;;;;3.97;2.22;;;;;;;15.49;70.37;98627.47;5046225;28;20345;-67
2022/05/15 05:42:17;;;;;;;4.82;2.10;;;;;;;16.23;68.91;98635.91;5046152;28;20029;-67
2022/05/15 05:44:43;;;;;;;3.67;2.08;;;;;;;16.45;67.27;98630.59;5046127;28;20021;-67
2022/05/15 05:47:08;;;;;;;4.05;2.45;;;;;;;16.56;66.67;98626.56;5046012;28;20029;-67
2022/05/15 05:49:33;;;;;;;3.17;2.30;;;;;;;16.76;66.36;98636.28;5045937;28;20038;-67
2022/05/15 05:51:58;;;;;;;3.40;2.00;;;;;;;16.83;66.56;98633.31;5057431;28;20032;-67
2022/05/15 05:54:24;;;;;;;3.35;1.90;;;;;;;16.97;66.62;98636.22;5065945;28;20047;-67
2022/05/15 05:56:49;;;;;;;3.35;2.15;;;;;;;17.03;66.38;98633.25;5073644;28;20024;-67
2022/05/15 05:59:14;;;;;;;4.93;2.42;;;;;;;17.40;65.98;98640.44;5085890;28;20017;-67
2022/05/15 06:01:40;;;;;;;3.08;2.20;;;;;;;17.60;66.46;98640.41;5085745;28;20324;-67
2022/05/15 06:06:49;;;;;;;3.75;2.20;;;;;;;18.50;65.41;98643.91;5085742;28;20027;-67
2022/05/15 06:09:14;;;;;;;9.05;2.95;;;;;;;18.88;65.83;98649.94;5085538;28;20020;-67
2022/05/15 06:11:39;;;;;;;5.00;2.65;;;;;;;19.27;63.90;98641.66;5085586;28;20319;-67
2022/05/15 06:14:05;;;;;;;3.33;2.03;;;;;;;19.50;63.03;98638.59;5085572;28;20095;-67
2022/05/15 06:16:32;;;;;;;4.20;2.13;;;;;;;19.46;63.17;98629.91;5085534;28;20251;-67
2022/05/15 06:18:58;;;;;;;6.40;2.10;;;;;;;19.79;63.54;98636.03;5085718;28;20020;-67
2022/05/15 06:21:24;;;;;;;4.65;2.40;;;;;;;20.28;62.98;98637.66;5085660;28;20316;-67
2022/05/15 06:23:49;;;;;;;5.70;2.50;;;;;;;20.59;62.07;98634.91;5075170;28;20039;-68
2022/05/15 06:26:14;;;;;;;3.60;2.45;;;;;;;20.94;62.04;98639.03;5064386;28;20092;-68
2022/05/15 06:28:40;;;;;;;4.68;2.22;;;;;;;21.00;61.42;98635.13;5063158;28;20084;-68
2022/05/15 06:31:05;;;;;;;3.53;2.17;;;;;;;21.36;61.71;98637.34;5064261;28;20024;-68
2022/05/15 06:33:30;;;;;;;3.22;2.03;;;;;;;21.70;61.35;98642.31;5057665;28;20088;-68
2022/05/15 06:35:56;;;;;;;3.33;2.10;;;;;;;21.48;62.20;98642.78;5056049;28;20071;-68
2022/05/15 06:38:21;;;;;;;4.20;2.50;;;;;;;21.80;62.23;98638.09;5064106;28;20343;-68
2022/05/15 06:40:47;;;;;;;2.60;2.20;;;;;;;22.50;61.02;98651.31;5064352;28;20213;-68
2022/05/15 06:43:12;;;;;;;4.35;2.08;;;;;;;23.02;60.36;98641.44;5064802;28;20075;-68
2022/05/15 06:45:37;;;;;;;4.07;2.30;;;;;;;23.39;58.61;98647.81;5064896;28;20091;-68
2022/05/15 06:48:03;;;;;;;6.47;2.15;;;;;;;24.03;56.77;98648.47;5064692;28;20033;-67
2022/05/15 06:50:28;;;;;;;3.22;1.95;;;;;;;24.22;55.53;98653.34;5064831;28;20024;-68
2022/05/15 06:52:54;;;;;;;3.20;1.88;;;;;;;24.72;53.04;98655.84;5064808;28;20040;-68
2022/05/15 06:55:22;;;;;;;4.60;2.20;;;;;;;24.75;52.91;98645.72;5064767;28;20032;-68
2022/05/15 06:57:49;;;;;;;2.97;1.77;;;;;;;24.65;49.59;98643.81;5064395;28;20028;-68
2022/05/15 07:00:18;;;;;;;6.90;2.20;;;;;;;24.55;48.01;98632.84;5085248;28;20020;-68
2022/05/15 07:02:46;;;;;;;5.70;1.98;;;;;;;25.21;48.16;98654.63;5084523;28;20035;-68
2022/05/15 07:05:14;;;;;;;11.30;1.98;;;;;;;24.87;44.65;98638.53;5084817;28;20043;-68
2022/05/15 07:07:40;;;;;;;5.57;1.77;;;;;;;25.00;46.68;98645.50;5084468;28;20027;-68
2022/05/15 07:10:06;;;;;;;12.18;2.40;;;;;;;25.11;47.40;98648.25;5084327;28;20017;-67
2022/05/15 07:12:31;;;;;;;4.97;1.50;;;;;;;25.44;46.30;98644.78;5084447;28;20055;-68
2022/05/15 07:14:57;;;;;;;4.30;1.60;;;;;;;25.75;46.07;98653.97;5084403;28;20220;-68
2022/05/15 07:17:22;;;;;;;3.00;1.73;;;;;;;25.90;44.61;98652.72;5084433;28;20044;-68
2022/05/15 07:19:47;;;;;;;3.85;1.70;;;;;;;26.48;43.68;98660.50;5084592;28;20039;-68
2022/05/15 07:22:13;;;;;;;5.30;1.42;;;;;;;26.55;43.15;98656.31;5075835;28;20021;-68
2022/05/15 07:24:39;;;;;;;5.43;1.95;;;;;;;26.18;42.92;98647.69;5064300;28;20016;-68
2022/05/15 07:27:08;;;;;;;3.38;1.77;;;;;;;26.69;42.47;98647.94;5064198;28;20024;-68
2022/05/15 07:29:36;;;;;;;1.77;1.23;;;;;;;26.68;42.14;98648.91;5064089;28;20313;-68
2022/05/15 07:32:03;;;;;;;4.28;1.83;;;;;;;26.61;41.78;98656.66;5064059;28;20225;-68
2022/05/15 07:34:28;;;;;;;3.85;1.40;;;;;;;26.21;42.30;98646.59;5047802;28;20048;-68
2022/05/15 07:36:53;;;;;;;3.83;1.55;;;;;;;26.20;41.97;98650.28;5044158;28;20029;-68
2022/05/15 07:39:20;;;;;;;2.40;1.38;;;;;;;25.50;40.67;98643.44;5043744;28;20083;-68
2022/05/15 07:41:46;;;;;;;2.05;1.20;;;;;;;25.64;42.77;98640.47;5042867;28;20092;-68
2022/05/15 07:44:12;;;;;;;3.25;1.50;;;;;;;25.86;42.76;98630.56;5043535;28;20393;-68
2022/05/15 07:46:37;;;;;;;4.40;1.50;;;;;;;26.17;40.93;98639.72;5043965;28;20049;-68
2022/05/15 07:49:03;;;;;;;3.88;1.27;;;;;;;25.76;41.43;98632.28;5043727;28;20044;-68
2022/05/15 07:51:31;;;;;;;1.90;1.30;;;;;;;25.12;42.52;98633.78;5044184;28;20352;-68
2022/05/15 07:53:56;;;;;;;5.10;1.13;;;;;;;25.71;40.74;98636.31;5043906;28;20374;-68
2022/05/15 07:56:21;;;;;;;3.25;1.67;;;;;;;26.02;39.65;98640.97;5043868;28;20017;-68
2022/05/15 07:58:48;;;;;;;2.67;1.10;;;;;;;26.09;39.60;98636.78;5043922;28;20025;-68
2022/05/15 08:01:13;;;;;;;4.50;1.92;;;;;;;25.50;40.77;98621.88;5043854;28;20025;-68
2022/05/15 08:03:43;;;;;;;4.25;1.30;;;;;;;26.94;39.17;98636.75;5043773;28;20084;-68
2022/05/15 08:08:52;;;;;;;3.95;1.58;;;;;;;27.11;38.44;98623.50;5043680;28;20036;-68
2022/05/15 08:11:17;;;;;;;7.22;1.42;;;;;;;25.91;39.04;98619.41;5044133;28;20257;-68
2022/05/15 08:13:43;;;;;;;7.03;1.40;;;;;;;26.04;37.96;98622.84;5061690;28;20049;-68
2022/05/15 08:16:09;;;;;;;4.20;1.35;;;;;;;25.65;39.13;98615.25;5043963;28;20060;-68
2022/05/15 08:24:04;;;;;;;2.75;1.40;;;;;;;26.25;38.49;98615.66;5043656;28;20064;-68
2022/05/15 08:26:30;;;;;;;1.38;1.20;;;;;;;27.05;38.33;98612.41;5043672;28;20092;-68
2022/05/15 08:28:57;;;;;;;3.75;1.20;;;;;;;26.42;37.52;98610.56;5043592;28;20039;-68
2022/05/15 08:31:24;;;;;;;3.80;1.23;;;;;;;26.92;36.95;98603.59;5043612;28;20093;-68
2022/05/15 08:33:50;;;;;;;2.67;1.15;;;;;;;27.24;36.84;98617.94;5048976;28;20317;-68
2022/05/15 08:36:16;;;;;;;2.90;1.17;;;;;;;27.66;36.94;98618.72;5063789;28;20031;-68
2022/05/15 08:38:41;;;;;;;3.72;1.25;;;;;;;27.04;36.01;98600.72;5063652;28;20021;-68
2022/05/15 08:41:24;;;;;;;1.85;1.38;;;;;;;27.43;37.46;98601.84;5062171;28;20025;-68
2022/05/15 08:44:11;;;;;;;2.00;1.15;;;;;;;26.20;36.86;98594.44;5043496;28;20365;-68
2022/05/15 08:46:48;;;;;;;3.20;1.23;;;;;;;26.73;36.84;98596.22;5043377;28;20119;-69
2022/05/15 08:49:55;;;;;;;2.53;1.20;;;;;;;27.25;36.56;98603.44;5043217;28;20042;-68
2022/05/15 08:52:34;;;;;;;2.00;1.10;;;;;;;27.43;35.40;98601.84;5045026;28;20037;-69
2022/05/15 08:55:07;;;;;;;4.50;1.38;;;;;;;27.05;36.12;98599.72;5046982;28;20031;-68
2022/05/15 08:57:45;;;;;;;1.85;1.25;;;;;;;27.33;35.71;98614.41;5047048;28;20029;-68
2022/05/15 09:00:14;;;;;;;6.05;1.63;;;;;;;28.13;34.98;98615.34;5047596;28;20017;-68
2022/05/15 09:02:42;;;;;;;4.03;1.30;;;;;;;27.73;35.04;98604.50;5066457;28;20017;-68
2022/05/15 09:05:08;;;;;;;4.30;1.10;;;;;;;27.98;35.47;98605.91;5066762;28;20271;-68
2022/05/15 09:07:50;;;;;;;4.03;1.77;;;;;;;27.96;36.43;98606.03;5066823;28;20024;-70
2022/05/15 09:10:21;;;;;;;3.13;1.05;;;;;;;28.35;33.89;98591.56;5066890;28;20035;-71
2022/05/15 09:12:55;;;;;;;5.22;1.30;;;;;;;28.44;34.82;98606.97;5081536;28;20236;-71
2022/05/15 09:15:24;;;;;;;1.95;1.20;;;;;;;27.46;34.95;98589.88;5086949;28;20024;-71
2022/05/15 09:17:58;;;;;;;2.30;1.27;;;;;;;27.97;35.09;98599.63;5067815;28;20201;-71
2022/05/15 09:20:24;;;;;;;1.52;1.10;;;;;;;28.63;34.22;98598.88;5066565;28;20028;-71
2022/05/15 09:23:02;;;;;;;4.33;1.60;;;;;;;28.39;34.31;98593.03;5066592;28;20025;-71
2022/05/15 09:25:33;;;;;;;3.13;1.55;;;;;;;28.26;34.59;98603.28;5067500;28;20221;-71
2022/05/15 09:28:06;;;;;;;5.95;1.20;;;;;;;28.27;35.26;98593.28;5066502;28;20028;-71
2022/05/15 09:30:42;;;;;;;5.43;1.17;;;;;;;28.27;34.34;98580.59;5066451;28;20016;-71
2022/05/15 09:33:23;;;;;;;3.17;1.60;;;;;;;27.84;35.05;98590.88;5065872;28;20212;-71
2022/05/15 09:35:49;;;;;;;4.13;1.20;;;;;;;27.33;35.31;98589.25;5047854;28;20055;-71
2022/05/15 09:38:27;;;;;;;4.70;1.10;;;;;;;28.37;34.20;98595.00;5047823;28;20017;-71
2022/05/15 09:44:02;;;;;;;2.30;1.35;;;;;;;28.83;33.80;98595.19;5046942;28;20079;-71
2022/05/15 09:46:30;;;;;;;1.95;1.10;;;;;;;29.27;32.90;98595.56;5046696;28;20029;-71
2022/05/15 09:49:06;;;;;;;3.08;1.40;;;;;;;28.86;33.21;98580.50;5045870;28;20041;-71
2022/05/15 09:51:48;;;;;;;2.55;1.20;;;;;;;28.70;34.05;98581.06;5056660;28;20036;-71
2022/05/15 09:54:37;;;;;;;4.25;1.30;;;;;;;28.67;33.96;98570.50;5065331;28;20029;-71
2022/05/15 09:57:08;;;;;;;4.70;1.30;;;;;;;27.95;34.16;98560.16;5059174;28;20039;-71
2022/05/15 09:59:34;;;;;;;2.33;1.10;;;;;;;28.17;34.74;98565.34;5050475;28;20029;-71
2022/05/15 10:02:00;;;;;;;2.85;1.30;;;;;;;28.59;35.24;98573.09;5070468;28;20254;-71
2022/05/15 10:04:30;;;;;;;2.58;1.38;;;;;;;29.30;34.40;98565.44;5060090;28;20313;-71
2022/05/15 10:07:04;;;;;;;3.50;1.20;;;;;;;30.05;32.63;98574.25;5048607;28;20028;-71
2022/05/15 10:09:41;;;;;;;3.78;1.40;;;;;;;29.14;33.77;98558.75;5045882;28;20021;-71
2022/05/15 10:12:27;;;;;;;2.78;1.35;;;;;;;27.61;34.32;98546.09;5046750;28;20029;-71
2022/05/15 10:15:00;;;;;;;3.20;1.17;;;;;;;27.38;35.50;98544.59;5046981;28;20017;-71
2022/05/15 10:17:26;;;;;;;4.07;1.50;;;;;;;27.70;36.20;98550.69;5045808;28;20036;-71
2022/05/15 10:19:59;;;;;;;4.25;1.25;;;;;;;28.19;34.88;98549.81;5045453;28;20025;-71
2022/05/15 10:22:36;;;;;;;4.15;1.15;;;;;;;28.03;34.48;98539.53;5046266;28;20067;-71
2022/05/15 10:25:14;;;;;;;1.98;1.27;;;;;;;27.18;35.43;98537.38;5065112;28;20131;-71
2022/05/15 10:27:43;;;;;;;3.20;1.45;;;;;;;27.37;36.16;98534.78;5065323;28;20115;-71
2022/05/15 10:30:16;;;;;;;3.10;1.35;;;;;;;27.99;35.87;98540.81;5065181;28;20097;-71
2022/05/15 10:32:51;;;;;;;5.35;1.42;;;;;;;28.23;35.76;98541.28;5060592;28;20309;-72
2022/05/15 10:35:35;;;;;;;5.25;1.90;;;;;;;28.18;36.21;98534.56;5044247;28;20100;-72
2022/05/15 10:38:07;;;;;;;3.80;1.40;;;;;;;28.90;34.64;98543.97;5044194;28;20049;-72
2022/05/15 10:41:05;;;;;;;4.82;1.40;;;;;;;27.91;36.01;98527.16;5044152;28;20229;-72
2022/05/15 10:43:53;;;;;;;3.58;1.20;;;;;;;28.22;35.60;98525.19;5043900;28;20025;-72
2022/05/15 10:46:39;;;;;;;3.58;1.67;;;;;;;28.22;35.09;98517.91;5044304;28;20317;-72
2022/05/15 10:49:32;;;;;;;7.90;1.60;;;;;;;27.45;36.59;98513.31;5062630;28;20032;-72
2022/05/15 10:52:35;;;;;;;3.70;1.38;;;;;;;27.33;35.88;98514.41;5063875;28;20032;-72
2022/05/15 10:58:32;;;;;;;3.00;1.30;;;;;;;27.40;36.33;98506.63;5052505;28;20099;-71
2022/05/15 11:01:04;;;;;;;2.40;1.30;;;;;;;27.09;37.30;98501.19;5043798;28;20084;-71
2022/05/15 11:03:52;;;;;;;6.90;1.88;;;;;;;27.37;36.45;98505.06;5043660;28;20025;-71
2022/05/15 11:06:55;;;;;;;2.40;1.50;;;;;;;27.93;37.12;98514.31;5043651;28;20026;-71
2022/05/15 11:09:46;;;;;;;3.72;1.60;;;;;;;27.97;37.63;98501.38;5041588;28;20087;-71
2022/05/15 11:12:29;;;;;;;4.40;1.60;;;;;;;27.18;37.49;98507.66;5041666;28;20044;-71
2022/05/15 11:15:35;;;;;;;3.55;1.60;;;;;;;27.53;37.96;98494.56;5056737;28;20071;-71
2022/05/15 11:18:25;;;;;;;2.83;1.42;;;;;;;27.41;36.77;98509.19;5050917;28;20106;-71
2022/05/15 11:20:55;;;;;;;3.22;1.70;;;;;;;27.56;36.62;98499.72;5061502;28;20056;-71
2022/05/15 11:23:23;;;;;;;2.65;1.70;;;;;;;27.49;38.49;98503.09;5061012;28;20036;-71
2022/05/15 11:25:59;;;;;;;4.43;1.70;;;;;;;26.85;37.84;98502.47;5061431;28;20028;-71
2022/05/15 11:28:33;;;;;;;3.53;1.40;;;;;;;27.04;37.71;98480.97;5059656;28;20112;-71
2022/05/15 11:31:11;;;;;;;3.70;1.70;;;;;;;27.02;38.25;98486.50;5061316;28;20033;-71
2022/05/15 11:34:09;;;;;;;2.90;1.40;;;;;;;26.92;37.72;98482.03;5061371;28;20036;-71
2022/05/15 11:36:44;;;;;;;3.33;1.70;;;;;;;26.46;38.68;98473.50;5018159;28;20275;-71
2022/05/15 11:39:15;;;;;;;2.03;1.27;;;;;;;26.82;39.37;98482.00;5059345;28;20396;-71
2022/05/15 11:41:43;;;;;;;3.10;1.70;;;;;;;26.45;39.46;98488.00;5061241;28;20356;-71
2022/05/15 11:44:14;;;;;;;3.67;1.50;;;;;;;26.66;38.61;98475.38;5045705;28;20037;-71
2022/05/15 11:46:45;;;;;;;5.28;1.70;;;;;;;26.13;38.45;98454.81;5043127;28;20092;-71
2022/05/15 11:49:26;;;;;;;2.40;1.35;;;;;;;26.37;40.29;98468.91;5042489;28;20041;-71
2022/05/15 11:52:03;;;;;;;2.75;1.63;;;;;;;25.81;39.98;98460.16;5043018;28;20084;-71
2022/05/15 11:54:41;;;;;;;2.92;1.50;;;;;;;26.05;41.01;98462.69;5043036;28;20025;-71
2022/05/15 11:57:10;;;;;;;4.45;1.80;;;;;;;26.15;41.41;98452.81;5062497;28;20029;-71
2022/05/15 11:59:47;;;;;;;4.88;1.88;;;;;;;25.67;41.24;98456.91;5063140;28;20017;-71
2022/05/15 12:02:21;;;;;;;5.28;1.52;;;;;;;26.04;40.47;98450.19;5062304;28;20028;-71
2022/05/15 12:04:46;;;;;;;4.43;1.60;;;;;;;25.65;40.34;98448.94;5062580;28;20096;-71